Wheldrake, United Kingdom
Current Conditions -  °F | °C
As of 11:50 PM on Saturday 25 Oct 2014 (Local Time) from EGXU Reporting Station
Overcast Overcast  
Wind Chill: 54°   Ceiling: 5000
Heat Index: 54°   Visibility: 6mi
Dew Point: 46°   Wind: 15mph
Humidity: 77%   Direction: 200°SSW
Pressure: 29.91"   Gusts: NA
Location:  53.9°N, 0.96°W
Report Text: EGXU 252250Z AUTO 20013KT 9999 // OVC050/// 12/08 Q1013
Loading
Personal Weather Stations






























Interactive Weather Map
Tropical Storm Tracking
New forecast layout! Learn more

10-Day Weather Forecast

Advertisements
Track Severe Weather on mobile